Kiefer, Oklahoma
Current Conditions -  °F | °C
As of 2:53 PM on Monday 24 Nov 2014 (Local Time) from KRVS Reporting Station
Clear Clear  
Wind Chill: 56°   Ceiling: Unl
Heat Index: 56°   Visibility: 10mi
Dew Point: 23°   Wind: 12mph
Humidity: 28%   Direction: 290°WNW
Pressure: 29.93"   Gusts: 20mph
Location:  35.94°N, 96.07°W
Report Text: KRVS 242053Z 29010G17KT 10SM CLR 13/M05 A2993 RMK AO2 SLP141 T01331050 55001
Loading
Personal Weather Stations






























Interactive Weather Map New forecast layout! Learn more

10-Day Weather Forecast

Advertisements
Track Severe Weather on mobile